sensor_id;sensor_type;location;lat;lon;timestamp;pressure;altitude;pressure_sealevel;temperature;humidity
74708;BME280;63360;50.104;8.074;2023-11-21T00:00:59;96453.94;;;7.23;100.00
74708;BME280;63360;50.104;8.074;2023-11-21T00:03:30;96455.63;;;7.28;100.00
74708;BME280;63360;50.104;8.074;2023-11-21T00:05:57;96449.06;;;7.22;100.00
74708;BME280;63360;50.104;8.074;2023-11-21T00:08:23;96447.22;;;7.22;100.00
74708;BME280;63360;50.104;8.074;2023-11-21T00:10:49;96446.47;;;7.22;100.00
74708;BME280;63360;50.104;8.074;2023-11-21T00:13:17;96459.72;;;7.20;100.00
74708;BME280;63360;50.104;8.074;2023-11-21T00:15:44;96464.28;;;7.23;100.00
74708;BME280;63360;50.104;8.074;2023-11-21T00:18:10;96454.09;;;7.18;100.00
74708;BME280;63360;50.104;8.074;2023-11-21T00:20:36;96455.75;;;7.23;100.00
74708;BME280;63360;50.104;8.074;2023-11-21T00:23:03;96459.56;;;7.25;100.00
74708;BME280;63360;50.104;8.074;2023-11-21T00:25:29;96449.38;;;7.20;100.00
74708;BME280;63360;50.104;8.074;2023-11-21T00:27:57;96460.78;;;7.28;100.00
74708;BME280;63360;50.104;8.074;2023-11-21T00:30:23;96456.97;;;7.25;100.00
74708;BME280;63360;50.104;8.074;2023-11-21T00:32:50;96463.66;;;7.26;100.00
74708;BME280;63360;50.104;8.074;2023-11-21T00:35:16;96466.75;;;7.28;100.00
74708;BME280;63360;50.104;8.074;2023-11-21T00:37:42;96467.50;;;7.29;100.00
74708;BME280;63360;50.104;8.074;2023-11-21T00:40:09;96464.44;;;7.27;100.00
74708;BME280;63360;50.104;8.074;2023-11-21T00:42:38;96463.97;;;7.25;100.00
74708;BME280;63360;50.104;8.074;2023-11-21T00:45:06;96462.94;;;7.26;100.00
74708;BME280;63360;50.104;8.074;2023-11-21T00:47:32;96467.50;;;7.29;100.00
74708;BME280;63360;50.104;8.074;2023-11-21T00:49:59;96467.03;;;7.27;100.00
74708;BME280;63360;50.104;8.074;2023-11-21T00:52:25;96466.88;;;7.32;100.00
74708;BME280;63360;50.104;8.074;2023-11-21T00:54:52;96478.31;;;7.31;100.00
74708;BME280;63360;50.104;8.074;2023-11-21T00:57:18;96470.53;;;7.31;100.00
74708;BME280;63360;50.104;8.074;2023-11-21T00:59:45;96469.31;;;7.28;100.00
74708;BME280;63360;50.104;8.074;2023-11-21T01:02:11;96462.34;;;7.29;100.00
74708;BME280;63360;50.104;8.074;2023-11-21T01:04:37;96460.78;;;7.28;100.00
74708;BME280;63360;50.104;8.074;2023-11-21T01:07:04;96471.16;;;7.28;100.00
74708;BME280;63360;50.104;8.074;2023-11-21T01:09:31;96465.34;;;7.22;100.00
74708;BME280;63360;50.104;8.074;2023-11-21T01:11:58;96475.84;;;7.26;100.00
74708;BME280;63360;50.104;8.074;2023-11-21T01:14:26;96474.78;;;7.27;100.00
74708;BME280;63360;50.104;8.074;2023-11-21T01:16:53;96479.66;;;7.28;100.00
74708;BME280;63360;50.104;8.074;2023-11-21T01:19:20;96492.28;;;7.30;100.00
74708;BME280;63360;50.104;8.074;2023-11-21T01:21:46;96492.75;;;7.32;100.00
74708;BME280;63360;50.104;8.074;2023-11-21T01:24:13;96490.47;;;7.30;100.00
74708;BME280;63360;50.104;8.074;2023-11-21T01:26:39;96494.47;;;7.37;100.00
74708;BME280;63360;50.104;8.074;2023-11-21T01:29:06;96491.06;;;7.27;100.00
74708;BME280;63360;50.104;8.074;2023-11-21T01:31:32;96496.09;;;7.32;100.00
74708;BME280;63360;50.104;8.074;2023-11-21T01:33:59;96499.28;;;7.29;100.00
74708;BME280;63360;50.104;8.074;2023-11-21T01:36:32;96487.25;;;7.25;100.00
74708;BME280;63360;50.104;8.074;2023-11-21T01:38:59;96491.50;;;7.21;100.00
74708;BME280;63360;50.104;8.074;2023-11-21T01:41:28;96502.78;;;7.25;100.00
74708;BME280;63360;50.104;8.074;2023-11-21T01:43:55;96496.19;;;7.19;100.00
74708;BME280;63360;50.104;8.074;2023-11-21T01:46:22;96500.91;;;7.17;100.00
74708;BME280;63360;50.104;8.074;2023-11-21T01:48:49;96507.31;;;7.19;100.00
74708;BME280;63360;50.104;8.074;2023-11-21T01:51:16;96508.81;;;7.12;100.00
74708;BME280;63360;50.104;8.074;2023-11-21T01:53:43;96509.00;;;7.15;100.00
74708;BME280;63360;50.104;8.074;2023-11-21T01:56:13;96516.44;;;7.17;100.00
74708;BME280;63360;50.104;8.074;2023-11-21T01:58:40;96502.59;;;7.13;100.00
74708;BME280;63360;50.104;8.074;2023-11-21T02:01:07;96518.88;;;7.22;100.00
74708;BME280;63360;50.104;8.074;2023-11-21T02:03:33;96521.31;;;7.18;100.00
74708;BME280;63360;50.104;8.074;2023-11-21T02:06:00;96519.66;;;7.22;100.00
74708;BME280;63360;50.104;8.074;2023-11-21T02:08:26;96510.03;;;7.14;100.00
74708;BME280;63360;50.104;8.074;2023-11-21T02:10:53;96516.63;;;7.20;100.00
74708;BME280;63360;50.104;8.074;2023-11-21T02:13:19;96515.06;;;7.19;100.00
74708;BME280;63360;50.104;8.074;2023-11-21T02:15:46;96522.69;;;7.24;100.00
74708;BME280;63360;50.104;8.074;2023-11-21T02:18:13;96517.84;;;7.23;100.00
74708;BME280;63360;50.104;8.074;2023-11-21T02:20:41;96526.19;;;7.20;100.00
74708;BME280;63360;50.104;8.074;2023-11-21T02:23:08;96526.06;;;7.25;100.00
74708;BME280;63360;50.104;8.074;2023-11-21T02:25:35;96525.28;;;7.24;100.00
74708;BME280;63360;50.104;8.074;2023-11-21T02:28:03;96518.88;;;7.22;100.00
74708;BME280;63360;50.104;8.074;2023-11-21T02:30:30;96523.47;;;7.25;100.00
74708;BME280;63360;50.104;8.074;2023-11-21T02:33:01;96522.84;;;7.19;100.00
74708;BME280;63360;50.104;8.074;2023-11-21T02:35:28;96522.84;;;7.19;100.00
74708;BME280;63360;50.104;8.074;2023-11-21T02:37:55;96522.38;;;7.17;100.00
74708;BME280;63360;50.104;8.074;2023-11-21T02:40:21;96527.09;;;7.15;100.00
74708;BME280;63360;50.104;8.074;2023-11-21T02:42:48;96533.78;;;7.16;100.00
74708;BME280;63360;50.104;8.074;2023-11-21T02:45:15;96528.31;;;7.18;100.00
74708;BME280;63360;50.104;8.074;2023-11-21T02:47:43;96522.84;;;7.19;100.00
74708;BME280;63360;50.104;8.074;2023-11-21T02:50:10;96528.47;;;7.21;100.00
74708;BME280;63360;50.104;8.074;2023-11-21T02:52:37;96529.22;;;7.22;100.00
74708;BME280;63360;50.104;8.074;2023-11-21T02:55:04;96533.34;;;7.23;100.00
74708;BME280;63360;50.104;8.074;2023-11-21T02:57:30;96526.00;;;7.16;100.00
74708;BME280;63360;50.104;8.074;2023-11-21T02:59:56;96536.72;;;7.23;100.00
74708;BME280;63360;50.104;8.074;2023-11-21T03:02:23;96541.41;;;7.21;100.00
74708;BME280;63360;50.104;8.074;2023-11-21T03:04:49;96545.06;;;7.20;100.00
74708;BME280;63360;50.104;8.074;2023-11-21T03:07:16;96540.75;;;7.16;100.00
74708;BME280;63360;50.104;8.074;2023-11-21T03:09:43;96539.72;;;7.17;100.00
74708;BME280;63360;50.104;8.074;2023-11-21T03:12:09;96544.75;;;7.22;100.00
74708;BME280;63360;50.104;8.074;2023-11-21T03:14:36;96548.69;;;7.19;100.00
74708;BME280;63360;50.104;8.074;2023-11-21T03:17:02;96541.84;;;7.15;100.00
74708;BME280;63360;50.104;8.074;2023-11-21T03:19:31;96536.66;;;7.15;100.00
74708;BME280;63360;50.104;8.074;2023-11-21T03:21:57;96551.75;;;7.21;100.00
74708;BME280;63360;50.104;8.074;2023-11-21T03:24:24;96562.09;;;7.21;100.00
74708;BME280;63360;50.104;8.074;2023-11-21T03:26:50;96552.50;;;7.22;100.00
74708;BME280;63360;50.104;8.074;2023-11-21T03:29:17;96552.47;;;7.13;100.00
74708;BME280;63360;50.104;8.074;2023-11-21T03:31:43;96557.81;;;7.17;100.00
74708;BME280;63360;50.104;8.074;2023-11-21T03:34:16;96554.59;;;7.11;100.00
74708;BME280;63360;50.104;8.074;2023-11-21T03:36:43;96553.22;;;7.14;100.00
74708;BME280;63360;50.104;8.074;2023-11-21T03:39:09;96561.00;;;7.14;100.00
74708;BME280;63360;50.104;8.074;2023-11-21T03:41:36;96565.28;;;7.18;100.00
74708;BME280;63360;50.104;8.074;2023-11-21T03:44:02;96571.78;;;7.16;100.00
74708;BME280;63360;50.104;8.074;2023-11-21T03:46:28;96568.63;;;7.19;100.00
74708;BME280;63360;50.104;8.074;2023-11-21T03:48:55;96576.69;;;7.17;100.00
74708;BME280;63360;50.104;8.074;2023-11-21T03:51:21;96570.09;;;7.11;100.00
74708;BME280;63360;50.104;8.074;2023-11-21T03:53:48;96573.66;;;7.15;100.00
74708;BME280;63360;50.104;8.074;2023-11-21T03:56:14;96578.38;;;7.22;100.00
74708;BME280;63360;50.104;8.074;2023-11-21T03:58:41;96581.56;;;7.19;100.00
74708;BME280;63360;50.104;8.074;2023-11-21T04:01:07;96582.28;;;7.11;100.00
74708;BME280;63360;50.104;8.074;2023-11-21T04:03:34;96580.91;;;7.13;100.00
74708;BME280;63360;50.104;8.074;2023-11-21T04:06:00;96597.38;;;7.17;100.00
74708;BME280;63360;50.104;8.074;2023-11-21T04:08:27;96586.41;;;7.12;100.00
74708;BME280;63360;50.104;8.074;2023-11-21T04:10:53;96582.56;;;7.09;100.00
74708;BME280;63360;50.104;8.074;2023-11-21T04:13:20;96594.91;;;7.12;100.00
74708;BME280;63360;50.104;8.074;2023-11-21T04:15:46;96588.97;;;7.12;100.00
74708;BME280;63360;50.104;8.074;2023-11-21T04:18:12;96594.88;;;7.04;100.00
74708;BME280;63360;50.104;8.074;2023-11-21T04:20:39;96602.31;;;7.05;100.00
74708;BME280;63360;50.104;8.074;2023-11-21T04:23:05;96606.44;;;7.06;100.00
74708;BME280;63360;50.104;8.074;2023-11-21T04:25:31;96610.06;;;7.05;100.00
74708;BME280;63360;50.104;8.074;2023-11-21T04:27:58;96610.06;;;7.05;100.00
74708;BME280;63360;50.104;8.074;2023-11-21T04:30:24;96601.84;;;7.03;100.00
74708;BME280;63360;50.104;8.074;2023-11-21T04:32:51;96607.44;;;6.97;100.00
74708;BME280;63360;50.104;8.074;2023-11-21T04:35:18;96611.44;;;7.03;100.00
74708;BME280;63360;50.104;8.074;2023-11-21T04:37:44;96611.59;;;7.06;100.00
74708;BME280;63360;50.104;8.074;2023-11-21T04:40:11;96618.91;;;7.04;100.00
74708;BME280;63360;50.104;8.074;2023-11-21T04:42:37;96619.09;;;7.08;100.00
74708;BME280;63360;50.104;8.074;2023-11-21T04:45:05;96622.25;;;7.05;100.00
74708;BME280;63360;50.104;8.074;2023-11-21T04:47:35;96620.06;;;6.98;100.00
74708;BME280;63360;50.104;8.074;2023-11-21T04:50:03;96633.47;;;7.00;100.00
74708;BME280;63360;50.104;8.074;2023-11-21T04:52:30;96631.53;;;7.06;100.00
74708;BME280;63360;50.104;8.074;2023-11-21T04:54:56;96632.88;;;7.03;100.00
74708;BME280;63360;50.104;8.074;2023-11-21T04:57:24;96640.47;;;7.00;100.00
74708;BME280;63360;50.104;8.074;2023-11-21T04:59:50;96645.66;;;7.00;100.00
74708;BME280;63360;50.104;8.074;2023-11-21T05:02:17;96636.63;;;6.97;100.00
74708;BME280;63360;50.104;8.074;2023-11-21T05:05:01;96647.59;;;6.94;100.00
74708;BME280;63360;50.104;8.074;2023-11-21T05:07:27;96652.25;;;6.92;100.00
74708;BME280;63360;50.104;8.074;2023-11-21T05:09:57;96652.09;;;6.89;100.00
74708;BME280;63360;50.104;8.074;2023-11-21T05:12:24;96669.09;;;7.03;100.00
74708;BME280;63360;50.104;8.074;2023-11-21T05:14:51;96666.03;;;7.01;100.00
74708;BME280;63360;50.104;8.074;2023-11-21T05:17:17;96663.09;;;6.94;100.00
74708;BME280;63360;50.104;8.074;2023-11-21T05:19:44;96662.59;;;6.92;100.00
74708;BME280;63360;50.104;8.074;2023-11-21T05:22:15;96661.25;;;6.95;100.00
74708;BME280;63360;50.104;8.074;2023-11-21T05:24:41;96659.75;;;6.94;100.00
74708;BME280;63360;50.104;8.074;2023-11-21T05:27:07;96671.91;;;6.93;100.00
74708;BME280;63360;50.104;8.074;2023-11-21T05:29:35;96680.13;;;6.95;100.00
74708;BME280;63360;50.104;8.074;2023-11-21T05:32:03;96674.69;;;6.97;100.00
74708;BME280;63360;50.104;8.074;2023-11-21T05:34:30;96686.84;;;6.96;100.00
74708;BME280;63360;50.104;8.074;2023-11-21T05:36:56;96681.19;;;6.94;100.00
74708;BME280;63360;50.104;8.074;2023-11-21T05:39:24;96692.28;;;6.95;100.00
74708;BME280;63360;50.104;8.074;2023-11-21T05:41:50;96701.00;;;6.99;100.00
74708;BME280;63360;50.104;8.074;2023-11-21T05:44:17;96706.75;;;6.96;100.00
74708;BME280;63360;50.104;8.074;2023-11-21T05:46:44;96699.41;;;6.89;100.00
74708;BME280;63360;50.104;8.074;2023-11-21T05:49:10;96700.34;;;6.93;100.00
74708;BME280;63360;50.104;8.074;2023-11-21T05:51:37;96711.00;;;6.92;100.00
74708;BME280;63360;50.104;8.074;2023-11-21T05:54:04;96705.63;;;6.88;100.00
74708;BME280;63360;50.104;8.074;2023-11-21T05:56:31;96707.75;;;6.86;100.00
74708;BME280;63360;50.104;8.074;2023-11-21T05:58:57;96711.47;;;6.94;100.00
74708;BME280;63360;50.104;8.074;2023-11-21T06:01:24;96704.75;;;6.93;100.00
74708;BME280;63360;50.104;8.074;2023-11-21T06:03:51;96712.81;;;6.91;100.00
74708;BME280;63360;50.104;8.074;2023-11-21T06:06:17;96714.44;;;6.87;100.00
74708;BME280;63360;50.104;8.074;2023-11-21T06:08:45;96718.25;;;6.90;100.00
74708;BME280;63360;50.104;8.074;2023-11-21T06:11:11;96725.25;;;6.89;100.00
74708;BME280;63360;50.104;8.074;2023-11-21T06:13:38;96715.00;;;6.84;100.00
74708;BME280;63360;50.104;8.074;2023-11-21T06:16:05;96736.34;;;6.90;100.00
74708;BME280;63360;50.104;8.074;2023-11-21T06:18:31;96730.81;;;6.83;100.00
74708;BME280;63360;50.104;8.074;2023-11-21T06:20:58;96735.88;;;6.88;100.00
74708;BME280;63360;50.104;8.074;2023-11-21T06:23:26;96741.94;;;6.83;100.00
74708;BME280;63360;50.104;8.074;2023-11-21T06:25:53;96743.38;;;6.89;100.00
74708;BME280;63360;50.104;8.074;2023-11-21T06:28:19;96744.41;;;6.88;100.00
74708;BME280;63360;50.104;8.074;2023-11-21T06:30:45;96747.09;;;6.83;100.00
74708;BME280;63360;50.104;8.074;2023-11-21T06:33:12;96738.28;;;6.84;100.00
74708;BME280;63360;50.104;8.074;2023-11-21T06:35:38;96742.69;;;6.84;100.00
74708;BME280;63360;50.104;8.074;2023-11-21T06:38:06;96752.44;;;6.87;100.00
74708;BME280;63360;50.104;8.074;2023-11-21T06:40:32;96756.09;;;6.86;100.00
74708;BME280;63360;50.104;8.074;2023-11-21T06:43:00;96768.56;;;6.84;100.00
74708;BME280;63360;50.104;8.074;2023-11-21T06:45:26;96770.84;;;6.85;100.00
74708;BME280;63360;50.104;8.074;2023-11-21T06:47:53;96779.63;;;6.84;100.00
74708;BME280;63360;50.104;8.074;2023-11-21T06:50:19;96790.75;;;6.85;100.00
74708;BME280;63360;50.104;8.074;2023-11-21T06:52:46;96791.81;;;6.84;100.00
74708;BME280;63360;50.104;8.074;2023-11-21T06:55:12;96776.56;;;6.82;100.00
74708;BME280;63360;50.104;8.074;2023-11-21T06:57:39;96797.47;;;6.86;100.00
74708;BME280;63360;50.104;8.074;2023-11-21T07:00:06;96795.34;;;6.88;100.00
74708;BME280;63360;50.104;8.074;2023-11-21T07:02:35;96806.53;;;6.97;100.00
74708;BME280;63360;50.104;8.074;2023-11-21T07:05:02;96800.41;;;6.93;100.00
74708;BME280;63360;50.104;8.074;2023-11-21T07:07:28;96811.16;;;6.86;100.00
74708;BME280;63360;50.104;8.074;2023-11-21T07:09:55;96819.19;;;6.85;100.00
74708;BME280;63360;50.104;8.074;2023-11-21T07:12:21;96815.66;;;6.81;100.00
74708;BME280;63360;50.104;8.074;2023-11-21T07:14:49;96814.13;;;6.80;100.00
74708;BME280;63360;50.104;8.074;2023-11-21T07:17:16;96819.94;;;6.85;100.00
74708;BME280;63360;50.104;8.074;2023-11-21T07:19:43;96821.59;;;6.81;100.00
74708;BME280;63360;50.104;8.074;2023-11-21T07:22:10;96827.50;;;6.82;100.00
74708;BME280;63360;50.104;8.074;2023-11-21T07:24:36;96832.50;;;6.78;100.00
74708;BME280;63360;50.104;8.074;2023-11-21T07:27:03;96825.03;;;6.77;100.00
74708;BME280;63360;50.104;8.074;2023-11-21T07:29:30;96850.97;;;6.85;100.00
74708;BME280;63360;50.104;8.074;2023-11-21T07:31:56;96847.34;;;6.86;100.00
74708;BME280;63360;50.104;8.074;2023-11-21T07:34:23;96848.97;;;6.82;100.00
74708;BME280;63360;50.104;8.074;2023-11-21T07:36:50;96854.59;;;6.84;100.00
74708;BME280;63360;50.104;8.074;2023-11-21T07:39:16;96861.13;;;6.82;100.00
74708;BME280;63360;50.104;8.074;2023-11-21T07:41:43;96856.25;;;6.80;100.00
74708;BME280;63360;50.104;8.074;2023-11-21T07:44:16;96863.13;;;6.85;100.00
74708;BME280;63360;50.104;8.074;2023-11-21T07:46:43;96864.66;;;6.86;100.00
74708;BME280;63360;50.104;8.074;2023-11-21T07:49:10;96859.59;;;6.81;100.00
74708;BME280;63360;50.104;8.074;2023-11-21T07:51:37;96865.72;;;6.85;100.00
74708;BME280;63360;50.104;8.074;2023-11-21T07:54:03;96869.16;;;6.80;100.00
74708;BME280;63360;50.104;8.074;2023-11-21T07:56:29;96874.44;;;6.89;100.00
74708;BME280;63360;50.104;8.074;2023-11-21T07:58:56;96878.47;;;6.81;100.00
74708;BME280;63360;50.104;8.074;2023-11-21T08:01:22;96880.94;;;6.86;100.00
74708;BME280;63360;50.104;8.074;2023-11-21T08:03:49;96875.94;;;6.90;100.00
74708;BME280;63360;50.104;8.074;2023-11-21T08:06:18;96879.41;;;6.85;100.00
74708;BME280;63360;50.104;8.074;2023-11-21T08:08:45;96890.22;;;6.87;100.00
74708;BME280;63360;50.104;8.074;2023-11-21T08:11:11;96896.94;;;6.88;100.00
74708;BME280;63360;50.104;8.074;2023-11-21T08:13:38;96900.56;;;6.87;100.00
74708;BME280;63360;50.104;8.074;2023-11-21T08:16:05;96897.22;;;6.87;100.00
74708;BME280;63360;50.104;8.074;2023-11-21T08:18:33;96897.03;;;6.83;100.00
74708;BME280;63360;50.104;8.074;2023-11-21T08:21:00;96910.44;;;6.85;100.00
74708;BME280;63360;50.104;8.074;2023-11-21T08:23:26;96905.25;;;6.85;100.00
74708;BME280;63360;50.104;8.074;2023-11-21T08:25:53;96908.06;;;6.89;100.00
74708;BME280;63360;50.104;8.074;2023-11-21T08:28:20;96906.97;;;6.90;100.00
74708;BME280;63360;50.104;8.074;2023-11-21T08:30:48;96914.47;;;6.91;100.00
74708;BME280;63360;50.104;8.074;2023-11-21T08:33:14;96921.34;;;6.96;100.00
74708;BME280;63360;50.104;8.074;2023-11-21T08:35:41;96933.03;;;6.93;100.00
74708;BME280;63360;50.104;8.074;2023-11-21T08:38:07;96926.72;;;6.99;100.00
74708;BME280;63360;50.104;8.074;2023-11-21T08:40:36;96927.09;;;6.93;100.00
74708;BME280;63360;50.104;8.074;2023-11-21T08:43:02;96936.56;;;6.97;100.00
74708;BME280;63360;50.104;8.074;2023-11-21T08:45:31;96936.78;;;7.01;100.00
74708;BME280;63360;50.104;8.074;2023-11-21T08:47:58;96939.09;;;7.02;100.00
74708;BME280;63360;50.104;8.074;2023-11-21T08:50:24;96932.94;;;6.98;100.00
74708;BME280;63360;50.104;8.074;2023-11-21T08:52:51;96934.47;;;6.99;100.00
74708;BME280;63360;50.104;8.074;2023-11-21T08:55:17;96926.81;;;6.94;100.00
74708;BME280;63360;50.104;8.074;2023-11-21T08:57:46;96936.09;;;6.95;100.00
74708;BME280;63360;50.104;8.074;2023-11-21T09:00:13;96942.25;;;6.99;100.00
74708;BME280;63360;50.104;8.074;2023-11-21T09:02:42;96945.69;;;7.08;100.00
74708;BME280;63360;50.104;8.074;2023-11-21T09:05:10;96941.06;;;7.05;100.00
74708;BME280;63360;50.104;8.074;2023-11-21T09:07:39;96945.78;;;7.03;100.00
74708;BME280;63360;50.104;8.074;2023-11-21T09:10:06;96941.56;;;7.07;100.00
74708;BME280;63360;50.104;8.074;2023-11-21T09:12:35;96956.78;;;7.09;100.00
74708;BME280;63360;50.104;8.074;2023-11-21T09:15:07;96961.09;;;7.13;100.00
74708;BME280;63360;50.104;8.074;2023-11-21T09:17:34;96960.94;;;7.10;100.00
74708;BME280;63360;50.104;8.074;2023-11-21T09:20:01;96963.22;;;7.11;100.00
74708;BME280;63360;50.104;8.074;2023-11-21T09:22:30;96966.56;;;7.12;100.00
74708;BME280;63360;50.104;8.074;2023-11-21T09:24:57;96959.59;;;7.12;100.00
74708;BME280;63360;50.104;8.074;2023-11-21T09:27:24;96964.66;;;7.17;100.00
74708;BME280;63360;50.104;8.074;2023-11-21T09:29:52;96974.22;;;7.17;100.00
74708;BME280;63360;50.104;8.074;2023-11-21T09:32:20;96969.06;;;7.17;100.00
74708;BME280;63360;50.104;8.074;2023-11-21T09:34:48;96970.03;;;7.21;100.00
74708;BME280;63360;50.104;8.074;2023-11-21T09:37:15;96965.91;;;7.20;100.00
74708;BME280;63360;50.104;8.074;2023-11-21T09:39:42;96974.59;;;7.24;100.00
74708;BME280;63360;50.104;8.074;2023-11-21T09:42:17;96976.34;;;7.28;100.00
74708;BME280;63360;50.104;8.074;2023-11-21T09:47:33;96967.81;;;7.55;100.00
74708;BME280;63360;50.104;8.074;2023-11-21T09:50:02;96983.81;;;7.30;100.00
74708;BME280;63360;50.104;8.074;2023-11-21T09:52:29;96983.81;;;7.16;100.00
74708;BME280;63360;50.104;8.074;2023-11-21T09:54:59;96988.88;;;7.21;100.00
74708;BME280;63360;50.104;8.074;2023-11-21T09:57:27;96989.84;;;7.25;100.00
74708;BME280;63360;50.104;8.074;2023-11-21T09:59:54;96985.25;;;7.22;100.00
74708;BME280;63360;50.104;8.074;2023-11-21T10:02:30;96993.22;;;7.26;100.00
74708;BME280;63360;50.104;8.074;2023-11-21T10:04:58;96996.56;;;7.26;100.00
74708;BME280;63360;50.104;8.074;2023-11-21T10:07:26;96997.63;;;7.25;100.00
74708;BME280;63360;50.104;8.074;2023-11-21T10:09:55;96996.28;;;7.28;100.00
74708;BME280;63360;50.104;8.074;2023-11-21T10:12:22;96997.06;;;7.28;100.00
74708;BME280;63360;50.104;8.074;2023-11-21T10:14:50;97006.16;;;7.40;100.00
74708;BME280;63360;50.104;8.074;2023-11-21T10:17:19;97015.44;;;7.41;100.00
74708;BME280;63360;50.104;8.074;2023-11-21T10:19:49;97010.75;;;7.43;100.00
74708;BME280;63360;50.104;8.074;2023-11-21T10:22:16;97018.81;;;7.41;100.00
74708;BME280;63360;50.104;8.074;2023-11-21T10:24:43;97019.00;;;7.45;100.00
74708;BME280;63360;50.104;8.074;2023-11-21T10:27:19;97026.66;;;7.50;100.00
74708;BME280;63360;50.104;8.074;2023-11-21T10:29:45;97027.25;;;7.47;100.00
74708;BME280;63360;50.104;8.074;2023-11-21T10:32:11;97020.41;;;7.51;100.00
74708;BME280;63360;50.104;8.074;2023-11-21T10:34:38;97025.44;;;7.47;100.00
74708;BME280;63360;50.104;8.074;2023-11-21T10:37:11;97025.22;;;7.57;100.00
74708;BME280;63360;50.104;8.074;2023-11-21T10:39:38;97028.75;;;7.61;100.00
74708;BME280;63360;50.104;8.074;2023-11-21T10:42:08;97030.28;;;7.76;100.00
74708;BME280;63360;50.104;8.074;2023-11-21T10:44:34;97027.91;;;7.79;100.00
74708;BME280;63360;50.104;8.074;2023-11-21T10:47:01;97027.50;;;7.86;100.00
74708;BME280;63360;50.104;8.074;2023-11-21T10:49:28;97018.28;;;7.93;100.00
74708;BME280;63360;50.104;8.074;2023-11-21T10:51:55;97019.81;;;7.94;100.00
74708;BME280;63360;50.104;8.074;2023-11-21T10:54:25;97027.47;;;8.00;100.00
74708;BME280;63360;50.104;8.074;2023-11-21T10:57:00;97029.97;;;8.05;100.00
74708;BME280;63360;50.104;8.074;2023-11-21T10:59:30;97028.03;;;8.10;100.00
74708;BME280;63360;50.104;8.074;2023-11-21T11:01:59;97031.78;;;8.04;100.00
74708;BME280;63360;50.104;8.074;2023-11-21T11:04:30;97024.78;;;8.05;100.00
74708;BME280;63360;50.104;8.074;2023-11-21T11:07:03;97023.66;;;7.97;100.00
74708;BME280;63360;50.104;8.074;2023-11-21T11:09:32;97032.56;;;8.05;100.00
74708;BME280;63360;50.104;8.074;2023-11-21T11:12:02;97030.63;;;8.10;100.00
74708;BME280;63360;50.104;8.074;2023-11-21T11:14:31;97030.72;;;8.05;100.00
74708;BME280;63360;50.104;8.074;2023-11-21T11:16:58;97023.91;;;8.09;100.00
74708;BME280;63360;50.104;8.074;2023-11-21T11:19:27;97017.47;;;8.07;100.00
74708;BME280;63360;50.104;8.074;2023-11-21T11:25:12;97017.38;;;8.12;100.00
74708;BME280;63360;50.104;8.074;2023-11-21T11:27:52;97033.56;;;8.17;100.00
74708;BME280;63360;50.104;8.074;2023-11-21T11:30:37;97034.53;;;8.21;100.00
74708;BME280;63360;50.104;8.074;2023-11-21T11:33:30;97027.69;;;8.25;100.00
74708;BME280;63360;50.104;8.074;2023-11-21T11:36:06;97028.47;;;8.26;100.00
74708;BME280;63360;50.104;8.074;2023-11-21T11:38:34;97026.97;;;8.25;100.00
74708;BME280;63360;50.104;8.074;2023-11-21T11:41:03;97027.22;;;8.37;100.00
74708;BME280;63360;50.104;8.074;2023-11-21T11:43:31;97027.22;;;8.37;100.00
74708;BME280;63360;50.104;8.074;2023-11-21T11:46:11;97028.75;;;8.38;100.00
74708;BME280;63360;50.104;8.074;2023-11-21T11:48:41;97024.06;;;8.26;100.00
74708;BME280;63360;50.104;8.074;2023-11-21T11:51:12;97036.34;;;8.34;100.00
74708;BME280;63360;50.104;8.074;2023-11-21T11:53:47;97041.41;;;8.39;100.00
74708;BME280;63360;50.104;8.074;2023-11-21T11:56:28;97034.09;;;8.41;100.00
74708;BME280;63360;50.104;8.074;2023-11-21T11:59:01;97032.88;;;8.39;100.00
74708;BME280;63360;50.104;8.074;2023-11-21T12:01:31;97026.63;;;8.40;100.00
74708;BME280;63360;50.104;8.074;2023-11-21T12:06:37;97031.06;;;8.39;100.00
74708;BME280;63360;50.104;8.074;2023-11-21T12:09:03;97031.84;;;8.26;100.00
74708;BME280;63360;50.104;8.074;2023-11-21T12:11:33;97039.81;;;8.30;100.00
74708;BME280;63360;50.104;8.074;2023-11-21T12:14:01;97048.66;;;8.29;100.00
74708;BME280;63360;50.104;8.074;2023-11-21T12:16:28;97049.97;;;8.26;100.00
74708;BME280;63360;50.104;8.074;2023-11-21T12:18:54;97052.00;;;8.16;100.00
74708;BME280;63360;50.104;8.074;2023-11-21T12:21:22;97062.06;;;8.17;100.00
74708;BME280;63360;50.104;8.074;2023-11-21T12:23:48;97054.97;;;8.09;100.00
74708;BME280;63360;50.104;8.074;2023-11-21T12:26:14;97054.78;;;8.19;100.00
74708;BME280;63360;50.104;8.074;2023-11-21T12:28:41;97062.38;;;8.16;100.00
74708;BME280;63360;50.104;8.074;2023-11-21T12:31:07;97066.50;;;8.17;100.00
74708;BME280;63360;50.104;8.074;2023-11-21T12:33:47;97070.34;;;8.19;100.00
74708;BME280;63360;50.104;8.074;2023-11-21T12:36:14;97077.47;;;8.27;100.00
74708;BME280;63360;50.104;8.074;2023-11-21T12:38:41;97071.75;;;8.25;100.00
74708;BME280;63360;50.104;8.074;2023-11-21T12:41:09;97080.41;;;8.34;100.00
74708;BME280;63360;50.104;8.074;2023-11-21T12:43:36;97069.16;;;8.25;100.00
74708;BME280;63360;50.104;8.074;2023-11-21T12:46:08;97078.28;;;8.23;100.00
74708;BME280;63360;50.104;8.074;2023-11-21T12:48:41;97077.34;;;8.19;100.00
74708;BME280;63360;50.104;8.074;2023-11-21T12:51:12;97075.78;;;8.18;100.00
74708;BME280;63360;50.104;8.074;2023-11-21T12:53:42;97081.84;;;8.13;100.00
74708;BME280;63360;50.104;8.074;2023-11-21T12:56:12;97085.78;;;8.11;100.00
74708;BME280;63360;50.104;8.074;2023-11-21T12:58:39;97080.16;;;8.09;100.00
74708;BME280;63360;50.104;8.074;2023-11-21T13:01:07;97077.91;;;8.16;100.00
74708;BME280;63360;50.104;8.074;2023-11-21T13:03:38;97077.56;;;8.09;100.00
74708;BME280;63360;50.104;8.074;2023-11-21T13:06:07;97082.34;;;8.02;100.00
74708;BME280;63360;50.104;8.074;2023-11-21T13:08:36;97090.69;;;7.99;100.00
74708;BME280;63360;50.104;8.074;2023-11-21T13:11:05;97095.03;;;8.03;100.00